sensor_id;sensor_type;location;lat;lon;timestamp;pressure;altitude;pressure_sealevel;temperature;humidity
13080;BME280;6606;49.154;9.280;2023-05-20T00:00:39;99817.25;;;10.66;100.00
13080;BME280;6606;49.154;9.280;2023-05-20T00:03:20;99819.53;;;10.74;100.00
13080;BME280;6606;49.154;9.280;2023-05-20T00:06:04;99817.03;;;10.71;100.00
13080;BME280;6606;49.154;9.280;2023-05-20T00:08:45;99812.53;;;10.73;100.00
13080;BME280;6606;49.154;9.280;2023-05-20T00:11:27;99809.94;;;10.71;100.00
13080;BME280;6606;49.154;9.280;2023-05-20T00:14:09;99802.22;;;10.67;100.00
13080;BME280;6606;49.154;9.280;2023-05-20T00:16:50;99800.63;;;10.63;100.00
13080;BME280;6606;49.154;9.280;2023-05-20T00:19:32;99806.25;;;10.56;100.00
13080;BME280;6606;49.154;9.280;2023-05-20T00:22:15;99800.16;;;10.54;100.00
13080;BME280;6606;49.154;9.280;2023-05-20T00:24:57;99800.00;;;10.57;100.00
13080;BME280;6606;49.154;9.280;2023-05-20T00:27:39;99798.78;;;10.65;100.00
13080;BME280;6606;49.154;9.280;2023-05-20T00:30:20;99806.88;;;10.62;100.00
13080;BME280;6606;49.154;9.280;2023-05-20T00:33:02;99806.09;;;10.60;100.00
13080;BME280;6606;49.154;9.280;2023-05-20T00:35:44;99803.22;;;10.64;100.00
13080;BME280;6606;49.154;9.280;2023-05-20T00:38:27;99804.09;;;10.65;100.00
13080;BME280;6606;49.154;9.280;2023-05-20T00:41:09;99795.34;;;10.63;100.00
13080;BME280;6606;49.154;9.280;2023-05-20T00:43:52;99798.00;;;10.63;100.00
13080;BME280;6606;49.154;9.280;2023-05-20T00:46:34;99786.16;;;10.70;100.00
13080;BME280;6606;49.154;9.280;2023-05-20T00:49:16;99792.25;;;10.72;100.00
13080;BME280;6606;49.154;9.280;2023-05-20T00:51:58;99791.63;;;10.67;100.00
13080;BME280;6606;49.154;9.280;2023-05-20T00:54:41;99784.00;;;10.78;100.00
13080;BME280;6606;49.154;9.280;2023-05-20T00:57:24;99784.00;;;10.78;100.00
13080;BME280;6606;49.154;9.280;2023-05-20T01:00:07;99781.81;;;10.86;100.00
13080;BME280;6606;49.154;9.280;2023-05-20T01:02:49;99774.50;;;10.91;100.00
13080;BME280;6606;49.154;9.280;2023-05-20T01:05:31;99785.03;;;10.93;100.00
13080;BME280;6606;49.154;9.280;2023-05-20T01:08:13;99775.44;;;11.08;100.00
13080;BME280;6606;49.154;9.280;2023-05-20T01:11:02;99784.47;;;11.21;100.00
13080;BME280;6606;49.154;9.280;2023-05-20T01:13:50;99782.56;;;11.25;100.00
13080;BME280;6606;49.154;9.280;2023-05-20T01:16:34;99781.31;;;11.14;100.00
13080;BME280;6606;49.154;9.280;2023-05-20T01:19:21;99777.47;;;11.20;100.00
13080;BME280;6606;49.154;9.280;2023-05-20T01:22:10;99770.44;;;11.36;100.00
13080;BME280;6606;49.154;9.280;2023-05-20T01:24:54;99776.25;;;11.43;100.00
13080;BME280;6606;49.154;9.280;2023-05-20T01:27:36;99766.19;;;11.50;100.00
13080;BME280;6606;49.154;9.280;2023-05-20T01:30:20;99778.59;;;11.82;100.00
13080;BME280;6606;49.154;9.280;2023-05-20T01:33:05;99764.13;;;12.21;100.00
13080;BME280;6606;49.154;9.280;2023-05-20T01:35:48;99764.19;;;12.51;100.00
13080;BME280;6606;49.154;9.280;2023-05-20T01:38:30;99764.09;;;12.69;100.00
13080;BME280;6606;49.154;9.280;2023-05-20T01:41:14;99768.03;;;12.77;100.00
13080;BME280;6606;49.154;9.280;2023-05-20T01:43:57;99767.50;;;12.87;100.00
13080;BME280;6606;49.154;9.280;2023-05-20T01:46:38;99776.22;;;13.05;100.00
13080;BME280;6606;49.154;9.280;2023-05-20T01:49:20;99774.50;;;13.04;100.00
13080;BME280;6606;49.154;9.280;2023-05-20T01:52:03;99766.06;;;13.11;100.00
13080;BME280;6606;49.154;9.280;2023-05-20T01:54:44;99770.84;;;13.20;100.00
13080;BME280;6606;49.154;9.280;2023-05-20T01:57:31;99763.72;;;13.21;100.00
13080;BME280;6606;49.154;9.280;2023-05-20T02:00:13;99764.03;;;13.31;100.00
13080;BME280;6606;49.154;9.280;2023-05-20T02:02:55;99760.84;;;13.40;100.00
13080;BME280;6606;49.154;9.280;2023-05-20T02:05:37;99758.94;;;13.42;100.00
13080;BME280;6606;49.154;9.280;2023-05-20T02:08:19;99755.31;;;13.43;100.00
13080;BME280;6606;49.154;9.280;2023-05-20T02:11:01;99761.59;;;13.56;100.00
13080;BME280;6606;49.154;9.280;2023-05-20T02:13:44;99754.78;;;13.67;100.00
13080;BME280;6606;49.154;9.280;2023-05-20T02:16:26;99761.06;;;13.66;100.00
13080;BME280;6606;49.154;9.280;2023-05-20T02:19:07;99743.53;;;13.76;100.00
13080;BME280;6606;49.154;9.280;2023-05-20T02:21:52;99750.31;;;13.81;100.00
13080;BME280;6606;49.154;9.280;2023-05-20T02:24:33;99747.81;;;13.78;100.00
13080;BME280;6606;49.154;9.280;2023-05-20T02:27:15;99750.88;;;13.72;100.00
13080;BME280;6606;49.154;9.280;2023-05-20T02:29:59;99759.25;;;13.66;100.00
13080;BME280;6606;49.154;9.280;2023-05-20T02:32:40;99748.47;;;13.68;100.00
13080;BME280;6606;49.154;9.280;2023-05-20T02:35:22;99753.81;;;13.68;100.00
13080;BME280;6606;49.154;9.280;2023-05-20T02:38:04;99751.25;;;13.66;100.00
13080;BME280;6606;49.154;9.280;2023-05-20T02:40:46;99739.84;;;13.50;100.00
13080;BME280;6606;49.154;9.280;2023-05-20T02:43:29;99739.72;;;13.51;100.00
13080;BME280;6606;49.154;9.280;2023-05-20T02:46:15;99732.31;;;13.56;100.00
13080;BME280;6606;49.154;9.280;2023-05-20T02:48:58;99730.81;;;13.52;100.00
13080;BME280;6606;49.154;9.280;2023-05-20T02:51:40;99736.59;;;13.45;100.00
13080;BME280;6606;49.154;9.280;2023-05-20T02:54:22;99738.59;;;13.55;100.00
13080;BME280;6606;49.154;9.280;2023-05-20T02:57:04;99738.97;;;13.49;100.00
13080;BME280;6606;49.154;9.280;2023-05-20T02:59:46;99739.91;;;13.48;100.00
13080;BME280;6606;49.154;9.280;2023-05-20T03:02:29;99742.84;;;13.44;100.00
13080;BME280;6606;49.154;9.280;2023-05-20T03:05:11;99742.59;;;13.48;100.00
13080;BME280;6606;49.154;9.280;2023-05-20T03:07:52;99742.38;;;13.51;100.00
13080;BME280;6606;49.154;9.280;2023-05-20T03:10:34;99742.84;;;13.44;100.00
13080;BME280;6606;49.154;9.280;2023-05-20T03:13:16;99744.47;;;13.46;100.00
13080;BME280;6606;49.154;9.280;2023-05-20T03:15:58;99758.38;;;13.51;100.00
13080;BME280;6606;49.154;9.280;2023-05-20T03:18:42;99744.47;;;13.46;100.00
13080;BME280;6606;49.154;9.280;2023-05-20T03:21:23;99748.94;;;13.46;100.00
13080;BME280;6606;49.154;9.280;2023-05-20T03:24:06;99747.72;;;13.51;100.00
13080;BME280;6606;49.154;9.280;2023-05-20T03:26:48;99742.38;;;13.51;100.00
13080;BME280;6606;49.154;9.280;2023-05-20T03:29:30;99745.81;;;13.53;100.00
13080;BME280;6606;49.154;9.280;2023-05-20T03:32:12;99746.38;;;13.44;100.00
13080;BME280;6606;49.154;9.280;2023-05-20T03:34:56;99745.81;;;13.53;100.00
13080;BME280;6606;49.154;9.280;2023-05-20T03:37:39;99742.38;;;13.51;100.00
13080;BME280;6606;49.154;9.280;2023-05-20T03:40:21;99740.50;;;13.53;100.00
13080;BME280;6606;49.154;9.280;2023-05-20T03:43:03;99744.97;;;13.53;100.00
13080;BME280;6606;49.154;9.280;2023-05-20T03:45:45;99740.69;;;13.50;100.00
13080;BME280;6606;49.154;9.280;2023-05-20T03:48:27;99747.06;;;13.48;100.00
13080;BME280;6606;49.154;9.280;2023-05-20T03:51:10;99744.59;;;13.45;100.00
13080;BME280;6606;49.154;9.280;2023-05-20T03:53:53;99743.53;;;13.47;100.00
13080;BME280;6606;49.154;9.280;2023-05-20T03:56:35;99734.66;;;13.47;100.00
13080;BME280;6606;49.154;9.280;2023-05-20T03:59:17;99736.50;;;13.60;100.00
13080;BME280;6606;49.154;9.280;2023-05-20T04:01:59;99738.41;;;13.58;100.00
13080;BME280;6606;49.154;9.280;2023-05-20T04:04:41;99742.41;;;13.66;100.00
13080;BME280;6606;49.154;9.280;2023-05-20T04:07:24;99734.59;;;13.62;100.00
13080;BME280;6606;49.154;9.280;2023-05-20T04:10:07;99743.34;;;13.64;100.00
13080;BME280;6606;49.154;9.280;2023-05-20T04:12:49;99740.69;;;13.79;100.00
13080;BME280;6606;49.154;9.280;2023-05-20T04:15:34;99735.16;;;13.82;100.00
13080;BME280;6606;49.154;9.280;2023-05-20T04:18:16;99739.91;;;13.91;100.00
13080;BME280;6606;49.154;9.280;2023-05-20T04:20:58;99734.97;;;13.85;100.00
13080;BME280;6606;49.154;9.280;2023-05-20T04:23:42;99742.38;;;13.94;100.00
13080;BME280;6606;49.154;9.280;2023-05-20T04:26:24;99741.88;;;14.02;100.00
13080;BME280;6606;49.154;9.280;2023-05-20T04:29:06;99738.75;;;14.10;100.00
13080;BME280;6606;49.154;9.280;2023-05-20T04:31:49;99740.44;;;14.25;100.00
13080;BME280;6606;49.154;9.280;2023-05-20T04:34:32;99733.91;;;14.43;100.00
13080;BME280;6606;49.154;9.280;2023-05-20T04:37:14;99733.34;;;14.38;100.00
13080;BME280;6606;49.154;9.280;2023-05-20T04:39:58;99729.59;;;14.55;100.00
13080;BME280;6606;49.154;9.280;2023-05-20T04:42:43;99725.16;;;14.68;100.00
13080;BME280;6606;49.154;9.280;2023-05-20T04:45:25;99725.28;;;14.67;100.00
13080;BME280;6606;49.154;9.280;2023-05-20T04:48:07;99720.94;;;14.79;100.00
13080;BME280;6606;49.154;9.280;2023-05-20T04:50:50;99722.47;;;14.95;100.00
13080;BME280;6606;49.154;9.280;2023-05-20T04:53:32;99719.09;;;15.19;100.00
13080;BME280;6606;49.154;9.280;2023-05-20T04:56:16;99711.38;;;15.02;100.00
13080;BME280;6606;49.154;9.280;2023-05-20T04:58:58;99710.53;;;15.27;100.00
13080;BME280;6606;49.154;9.280;2023-05-20T05:01:40;99716.00;;;15.38;100.00
13080;BME280;6606;49.154;9.280;2023-05-20T05:04:22;99726.78;;;15.36;100.00
13080;BME280;6606;49.154;9.280;2023-05-20T05:07:04;99711.19;;;15.30;100.00
13080;BME280;6606;49.154;9.280;2023-05-20T05:09:46;99710.44;;;15.28;100.00
13080;BME280;6606;49.154;9.280;2023-05-20T05:12:29;99713.97;;;15.42;100.00
13080;BME280;6606;49.154;9.280;2023-05-20T05:15:12;99704.03;;;15.56;100.00
13080;BME280;6606;49.154;9.280;2023-05-20T05:17:53;99713.22;;;15.39;100.00
13080;BME280;6606;49.154;9.280;2023-05-20T05:20:35;99703.69;;;15.61;100.00
13080;BME280;6606;49.154;9.280;2023-05-20T05:23:17;99701.88;;;15.74;100.00
13080;BME280;6606;49.154;9.280;2023-05-20T05:25:59;99696.66;;;15.86;100.00
13080;BME280;6606;49.154;9.280;2023-05-20T05:28:42;99698.81;;;15.80;100.00
13080;BME280;6606;49.154;9.280;2023-05-20T05:31:24;99692.88;;;16.01;100.00
13080;BME280;6606;49.154;9.280;2023-05-20T05:34:06;99690.53;;;16.33;100.00
13080;BME280;6606;49.154;9.280;2023-05-20T05:36:48;99697.31;;;16.61;100.00
13080;BME280;6606;49.154;9.280;2023-05-20T05:39:29;99709.06;;;16.47;100.00
13080;BME280;6606;49.154;9.280;2023-05-20T05:42:14;99706.84;;;16.65;100.00
13080;BME280;6606;49.154;9.280;2023-05-20T05:44:58;99701.16;;;16.46;100.00
13080;BME280;6606;49.154;9.280;2023-05-20T05:47:39;99692.22;;;16.58;100.00
13080;BME280;6606;49.154;9.280;2023-05-20T05:50:21;99696.94;;;16.79;100.00
13080;BME280;6606;49.154;9.280;2023-05-20T05:53:03;99700.16;;;16.95;100.00
13080;BME280;6606;49.154;9.280;2023-05-20T05:55:46;99703.09;;;16.92;100.00
13080;BME280;6606;49.154;9.280;2023-05-20T05:58:27;99703.41;;;17.23;100.00
13080;BME280;6606;49.154;9.280;2023-05-20T06:01:11;99704.00;;;17.15;100.00
13080;BME280;6606;49.154;9.280;2023-05-20T06:03:52;99707.53;;;17.27;100.00
13080;BME280;6606;49.154;9.280;2023-05-20T06:06:34;99700.59;;;17.35;100.00
13080;BME280;6606;49.154;9.280;2023-05-20T06:09:16;99705.63;;;17.51;100.00
13080;BME280;6606;49.154;9.280;2023-05-20T06:11:58;99694.66;;;17.43;100.00
13080;BME280;6606;49.154;9.280;2023-05-20T06:14:40;99686.00;;;17.28;100.00
13080;BME280;6606;49.154;9.280;2023-05-20T06:17:23;99690.03;;;17.23;100.00
13080;BME280;6606;49.154;9.280;2023-05-20T06:20:06;99687.88;;;16.92;100.00
13080;BME280;6606;49.154;9.280;2023-05-20T06:22:48;99684.84;;;16.97;100.00
13080;BME280;6606;49.154;9.280;2023-05-20T06:25:30;99679.00;;;16.68;100.00
13080;BME280;6606;49.154;9.280;2023-05-20T06:28:12;99679.22;;;16.89;100.00
13080;BME280;6606;49.154;9.280;2023-05-20T06:30:54;99676.16;;;16.58;100.00
13080;BME280;6606;49.154;9.280;2023-05-20T06:33:37;99683.56;;;16.55;100.00
13080;BME280;6606;49.154;9.280;2023-05-20T06:36:23;99677.78;;;16.72;100.00
13080;BME280;6606;49.154;9.280;2023-05-20T06:39:04;99676.53;;;16.78;100.00
13080;BME280;6606;49.154;9.280;2023-05-20T06:41:51;99678.25;;;17.01;100.00
13080;BME280;6606;49.154;9.280;2023-05-20T06:44:41;99670.63;;;17.08;100.00
13080;BME280;6606;49.154;9.280;2023-05-20T06:47:47;99665.16;;;17.21;100.00
13080;BME280;6606;49.154;9.280;2023-05-20T06:50:30;99663.72;;;17.50;100.00
13080;BME280;6606;49.154;9.280;2023-05-20T06:53:12;99660.09;;;17.63;100.00
13080;BME280;6606;49.154;9.280;2023-05-20T06:55:54;99662.75;;;17.74;100.00
13080;BME280;6606;49.154;9.280;2023-05-20T06:58:36;99665.44;;;18.08;100.00
13080;BME280;6606;49.154;9.280;2023-05-20T07:01:18;99660.53;;;18.01;100.00
13080;BME280;6606;49.154;9.280;2023-05-20T07:04:01;99661.19;;;18.37;100.00
13080;BME280;6606;49.154;9.280;2023-05-20T07:06:44;99654.72;;;19.45;100.00
13080;BME280;6606;49.154;9.280;2023-05-20T07:09:26;99656.22;;;21.55;100.00
13080;BME280;6606;49.154;9.280;2023-05-20T07:12:08;99645.41;;;21.82;100.00
13080;BME280;6606;49.154;9.280;2023-05-20T07:14:50;99650.38;;;23.56;100.00
13080;BME280;6606;49.154;9.280;2023-05-20T07:17:31;99635.31;;;25.12;76.93
13080;BME280;6606;49.154;9.280;2023-05-20T07:20:13;99641.84;;;24.20;85.06
13080;BME280;6606;49.154;9.280;2023-05-20T07:22:57;99633.06;;;25.49;77.73
13080;BME280;6606;49.154;9.280;2023-05-20T07:25:49;99635.75;;;24.26;85.73
13080;BME280;6606;49.154;9.280;2023-05-20T07:28:32;99618.69;;;23.14;92.51
13080;BME280;6606;49.154;9.280;2023-05-20T07:31:14;99619.22;;;22.20;100.00
13080;BME280;6606;49.154;9.280;2023-05-20T07:33:57;99624.78;;;23.16;92.34
13080;BME280;6606;49.154;9.280;2023-05-20T07:36:39;99624.84;;;21.81;100.00
13080;BME280;6606;49.154;9.280;2023-05-20T07:39:22;99622.31;;;21.42;100.00
13080;BME280;6606;49.154;9.280;2023-05-20T07:42:04;99619.75;;;20.45;100.00
13080;BME280;6606;49.154;9.280;2023-05-20T07:44:46;99606.75;;;22.09;100.00
13080;BME280;6606;49.154;9.280;2023-05-20T07:47:29;99604.81;;;24.53;88.60
13080;BME280;6606;49.154;9.280;2023-05-20T07:50:11;99609.75;;;24.98;75.15
13080;BME280;6606;49.154;9.280;2023-05-20T07:52:53;99610.06;;;25.12;75.12
13080;BME280;6606;49.154;9.280;2023-05-20T07:55:36;99600.09;;;24.71;78.42
13080;BME280;6606;49.154;9.280;2023-05-20T07:58:19;99607.00;;;25.15;74.05
13080;BME280;6606;49.154;9.280;2023-05-20T08:01:01;99613.44;;;24.40;79.41
13080;BME280;6606;49.154;9.280;2023-05-20T08:03:43;99620.72;;;23.81;80.56
13080;BME280;6606;49.154;9.280;2023-05-20T08:06:28;99601.81;;;23.20;90.46
13080;BME280;6606;49.154;9.280;2023-05-20T08:09:12;99603.25;;;22.27;97.22
13080;BME280;6606;49.154;9.280;2023-05-20T08:12:01;99593.72;;;23.63;86.60
13080;BME280;6606;49.154;9.280;2023-05-20T08:14:42;99590.59;;;24.67;84.66
13080;BME280;6606;49.154;9.280;2023-05-20T08:17:25;99586.47;;;27.74;58.85
13080;BME280;6606;49.154;9.280;2023-05-20T08:20:08;99574.47;;;26.48;61.14
13080;BME280;6606;49.154;9.280;2023-05-20T08:22:52;99572.66;;;28.12;58.17
13080;BME280;6606;49.154;9.280;2023-05-20T08:25:33;99575.78;;;27.28;55.72
13080;BME280;6606;49.154;9.280;2023-05-20T08:28:17;99581.44;;;25.01;68.89
13080;BME280;6606;49.154;9.280;2023-05-20T08:31:00;99572.50;;;25.79;62.95
13080;BME280;6606;49.154;9.280;2023-05-20T08:33:43;99572.75;;;25.06;69.67
13080;BME280;6606;49.154;9.280;2023-05-20T08:36:25;99571.59;;;22.99;89.21
13080;BME280;6606;49.154;9.280;2023-05-20T08:39:08;99573.88;;;23.12;92.99
13080;BME280;6606;49.154;9.280;2023-05-20T08:41:49;99572.84;;;22.60;95.14
13080;BME280;6606;49.154;9.280;2023-05-20T08:44:45;99572.63;;;22.18;100.00
13080;BME280;6606;49.154;9.280;2023-05-20T08:47:28;99572.34;;;22.21;100.00
13080;BME280;6606;49.154;9.280;2023-05-20T08:50:10;99568.16;;;22.45;100.00
13080;BME280;6606;49.154;9.280;2023-05-20T08:52:52;99571.09;;;21.88;100.00
13080;BME280;6606;49.154;9.280;2023-05-20T08:55:36;99574.63;;;21.70;100.00
13080;BME280;6606;49.154;9.280;2023-05-20T08:58:22;99566.44;;;22.44;100.00
13080;BME280;6606;49.154;9.280;2023-05-20T09:01:06;99569.28;;;23.04;99.79
13080;BME280;6606;49.154;9.280;2023-05-20T09:03:48;99576.47;;;23.21;100.00
13080;BME280;6606;49.154;9.280;2023-05-20T09:06:41;99570.63;;;23.34;91.24
13080;BME280;6606;49.154;9.280;2023-05-20T09:09:23;99563.09;;;24.05;90.15
13080;BME280;6606;49.154;9.280;2023-05-20T09:12:05;99572.34;;;23.78;97.94
13080;BME280;6606;49.154;9.280;2023-05-20T09:14:48;99569.22;;;24.15;92.12
13080;BME280;6606;49.154;9.280;2023-05-20T09:17:31;99570.06;;;24.24;83.61
13080;BME280;6606;49.154;9.280;2023-05-20T09:20:13;99557.16;;;23.85;89.41
13080;BME280;6606;49.154;9.280;2023-05-20T09:22:58;99566.88;;;24.53;85.13
13080;BME280;6606;49.154;9.280;2023-05-20T09:25:40;99568.84;;;25.16;76.10
13080;BME280;6606;49.154;9.280;2023-05-20T09:28:22;99563.97;;;24.22;79.54
13080;BME280;6606;49.154;9.280;2023-05-20T09:31:04;99570.03;;;23.57;90.05
13080;BME280;6606;49.154;9.280;2023-05-20T09:33:50;99551.44;;;24.37;83.95
13080;BME280;6606;49.154;9.280;2023-05-20T09:36:33;99543.88;;;24.49;88.83
13080;BME280;6606;49.154;9.280;2023-05-20T09:39:19;99553.28;;;24.12;84.80
13080;BME280;6606;49.154;9.280;2023-05-20T09:42:11;99547.03;;;24.11;85.74
13080;BME280;6606;49.154;9.280;2023-05-20T09:44:57;99560.28;;;24.55;90.81
13080;BME280;6606;49.154;9.280;2023-05-20T09:47:39;99541.50;;;24.54;83.44
13080;BME280;6606;49.154;9.280;2023-05-20T09:50:23;99548.91;;;24.44;86.46
13080;BME280;6606;49.154;9.280;2023-05-20T09:53:06;99555.50;;;24.08;79.84
13080;BME280;6606;49.154;9.280;2023-05-20T09:55:49;99544.16;;;24.78;80.49
13080;BME280;6606;49.154;9.280;2023-05-20T09:58:34;99555.31;;;24.02;90.41
13080;BME280;6606;49.154;9.280;2023-05-20T10:01:16;99535.16;;;23.03;91.92
13080;BME280;6606;49.154;9.280;2023-05-20T10:03:58;99531.66;;;23.11;94.57
13080;BME280;6606;49.154;9.280;2023-05-20T10:06:54;99530.97;;;23.59;93.77
13080;BME280;6606;49.154;9.280;2023-05-20T10:09:51;99529.25;;;23.42;92.84
13080;BME280;6606;49.154;9.280;2023-05-20T10:12:40;99521.94;;;23.34;96.62
13080;BME280;6606;49.154;9.280;2023-05-20T10:15:31;99531.06;;;23.33;94.53
13080;BME280;6606;49.154;9.280;2023-05-20T10:18:39;99515.59;;;23.68;88.29
13080;BME280;6606;49.154;9.280;2023-05-20T10:21:24;99521.06;;;23.34;98.13
13080;BME280;6606;49.154;9.280;2023-05-20T10:24:08;99511.81;;;23.44;99.11
13080;BME280;6606;49.154;9.280;2023-05-20T10:26:54;99509.47;;;24.25;86.11
13080;BME280;6606;49.154;9.280;2023-05-20T10:29:43;99515.03;;;24.81;83.33
13080;BME280;6606;49.154;9.280;2023-05-20T10:32:27;99508.09;;;24.37;83.65
13080;BME280;6606;49.154;9.280;2023-05-20T10:35:09;99504.75;;;24.51;83.77
13080;BME280;6606;49.154;9.280;2023-05-20T10:37:51;99503.38;;;23.98;89.40
13080;BME280;6606;49.154;9.280;2023-05-20T10:40:35;99505.03;;;23.99;91.18
13080;BME280;6606;49.154;9.280;2023-05-20T10:43:26;99501.25;;;23.67;85.89
13080;BME280;6606;49.154;9.280;2023-05-20T10:46:16;99504.69;;;24.02;83.33
13080;BME280;6606;49.154;9.280;2023-05-20T10:48:58;99487.13;;;23.98;82.99
13080;BME280;6606;49.154;9.280;2023-05-20T10:51:46;99489.81;;;24.23;86.25
13080;BME280;6606;49.154;9.280;2023-05-20T10:54:28;99501.00;;;24.52;84.43
13080;BME280;6606;49.154;9.280;2023-05-20T10:57:11;99488.22;;;24.94;72.68
13080;BME280;6606;49.154;9.280;2023-05-20T10:59:53;99481.44;;;24.90;73.33
13080;BME280;6606;49.154;9.280;2023-05-20T11:02:35;99483.22;;;25.14;74.17
13080;BME280;6606;49.154;9.280;2023-05-20T11:05:17;99488.13;;;24.54;74.37
13080;BME280;6606;49.154;9.280;2023-05-20T11:08:00;99486.44;;;24.53;73.77
13080;BME280;6606;49.154;9.280;2023-05-20T11:10:42;99470.94;;;24.87;72.44
13080;BME280;6606;49.154;9.280;2023-05-20T11:13:26;99467.66;;;24.52;70.55
13080;BME280;6606;49.154;9.280;2023-05-20T11:16:08;99472.72;;;25.11;67.66
13080;BME280;6606;49.154;9.280;2023-05-20T11:18:50;99470.41;;;24.99;69.11
13080;BME280;6606;49.154;9.280;2023-05-20T11:21:41;99464.31;;;24.89;70.40
13080;BME280;6606;49.154;9.280;2023-05-20T11:24:25;99463.25;;;24.51;74.62
13080;BME280;6606;49.154;9.280;2023-05-20T11:27:06;99457.94;;;24.66;71.98
13080;BME280;6606;49.154;9.280;2023-05-20T11:29:50;99455.91;;;24.68;75.26
13080;BME280;6606;49.154;9.280;2023-05-20T11:32:32;99453.19;;;24.76;80.56
13080;BME280;6606;49.154;9.280;2023-05-20T11:35:21;99438.44;;;24.78;77.49
13080;BME280;6606;49.154;9.280;2023-05-20T11:38:05;99445.22;;;25.30;77.01
13080;BME280;6606;49.154;9.280;2023-05-20T11:40:50;99443.88;;;25.80;69.62
13080;BME280;6606;49.154;9.280;2023-05-20T11:43:33;99444.47;;;25.67;65.16
13080;BME280;6606;49.154;9.280;2023-05-20T11:46:19;99430.72;;;26.30;62.35
13080;BME280;6606;49.154;9.280;2023-05-20T11:49:01;99441.03;;;25.74;63.24
13080;BME280;6606;49.154;9.280;2023-05-20T11:51:43;99446.28;;;25.75;64.40
13080;BME280;6606;49.154;9.280;2023-05-20T11:54:25;99435.53;;;24.88;63.48
13080;BME280;6606;49.154;9.280;2023-05-20T11:57:07;99432.78;;;24.08;72.70
13080;BME280;6606;49.154;9.280;2023-05-20T11:59:49;99435.81;;;24.54;75.67
13080;BME280;6606;49.154;9.280;2023-05-20T12:02:32;99432.22;;;24.70;75.86
13080;BME280;6606;49.154;9.280;2023-05-20T12:05:14;99430.50;;;25.48;65.50
13080;BME280;6606;49.154;9.280;2023-05-20T12:07:55;99424.38;;;25.54;67.20
13080;BME280;6606;49.154;9.280;2023-05-20T12:10:37;99425.44;;;25.44;64.96
13080;BME280;6606;49.154;9.280;2023-05-20T12:13:21;99417.47;;;25.20;69.33
13080;BME280;6606;49.154;9.280;2023-05-20T12:16:04;99410.72;;;24.99;68.11
13080;BME280;6606;49.154;9.280;2023-05-20T12:18:47;99419.28;;;25.51;69.73
13080;BME280;6606;49.154;9.280;2023-05-20T12:21:28;99420.13;;;24.81;71.59
13080;BME280;6606;49.154;9.280;2023-05-20T12:24:10;99413.19;;;24.78;73.43
13080;BME280;6606;49.154;9.280;2023-05-20T12:26:52;99402.59;;;24.99;75.90
13080;BME280;6606;49.154;9.280;2023-05-20T12:29:33;99402.25;;;25.65;71.99
13080;BME280;6606;49.154;9.280;2023-05-20T12:32:18;99400.13;;;25.98;69.64
13080;BME280;6606;49.154;9.280;2023-05-20T12:35:02;99404.09;;;25.41;72.81
13080;BME280;6606;49.154;9.280;2023-05-20T12:37:44;99398.94;;;24.84;73.99
13080;BME280;6606;49.154;9.280;2023-05-20T12:40:26;99401.06;;;24.41;84.27
13080;BME280;6606;49.154;9.280;2023-05-20T12:43:08;99397.03;;;24.21;86.50
13080;BME280;6606;49.154;9.280;2023-05-20T12:45:50;99393.22;;;24.71;77.45
13080;BME280;6606;49.154;9.280;2023-05-20T12:48:31;99395.72;;;25.97;71.64
13080;BME280;6606;49.154;9.280;2023-05-20T12:51:17;99398.81;;;26.47;71.04
13080;BME280;6606;49.154;9.280;2023-05-20T12:54:00;99386.63;;;27.02;69.14
13080;BME280;6606;49.154;9.280;2023-05-20T12:56:42;99396.34;;;27.11;61.64
13080;BME280;6606;49.154;9.280;2023-05-20T12:59:27;99403.72;;;26.66;63.76
13080;BME280;6606;49.154;9.280;2023-05-20T13:02:09;99387.50;;;26.73;65.63
13080;BME280;6606;49.154;9.280;2023-05-20T13:04:51;99381.06;;;25.83;68.09
13080;BME280;6606;49.154;9.280;2023-05-20T13:07:37;99386.13;;;25.63;68.24
13080;BME280;6606;49.154;9.280;2023-05-20T13:10:19;99373.97;;;25.74;67.72
13080;BME280;6606;49.154;9.280;2023-05-20T13:13:01;99365.53;;;25.69;71.97
13080;BME280;6606;49.154;9.280;2023-05-20T13:15:43;99370.91;;;25.77;70.68
13080;BME280;6606;49.154;9.280;2023-05-20T13:18:25;99370.44;;;26.12;69.85
13080;BME280;6606;49.154;9.280;2023-05-20T13:21:07;99369.53;;;26.19;66.87
13080;BME280;6606;49.154;9.280;2023-05-20T13:23:50;99374.28;;;26.55;64.51
13080;BME280;6606;49.154;9.280;2023-05-20T13:26:32;99373.13;;;26.64;63.31
13080;BME280;6606;49.154;9.280;2023-05-20T13:29:13;99370.56;;;26.18;67.17
13080;BME280;6606;49.154;9.280;2023-05-20T13:31:55;99363.41;;;26.55;64.44
13080;BME280;6606;49.154;9.280;2023-05-20T13:34:37;99374.66;;;26.52;68.31
13080;BME280;6606;49.154;9.280;2023-05-20T13:37:19;99368.84;;;26.02;63.43
13080;BME280;6606;49.154;9.280;2023-05-20T13:40:05;99360.28;;;25.91;65.80
13080;BME280;6606;49.154;9.280;2023-05-20T13:42:47;99350.59;;;26.11;69.17
13080;BME280;6606;49.154;9.280;2023-05-20T13:45:29;99345.16;;;26.11;68.67
13080;BME280;6606;49.154;9.280;2023-05-20T13:48:11;99356.09;;;25.88;69.85
13080;BME280;6606;49.154;9.280;2023-05-20T13:50:53;99347.38;;;25.93;69.32
13080;BME280;6606;49.154;9.280;2023-05-20T13:53:34;99343.38;;;26.03;66.24
13080;BME280;6606;49.154;9.280;2023-05-20T13:56:18;99334.09;;;25.98;65.50
13080;BME280;6606;49.154;9.280;2023-05-20T13:59:00;99346.59;;;25.61;68.38
13080;BME280;6606;49.154;9.280;2023-05-20T14:01:42;99335.38;;;25.87;67.97
13080;BME280;6606;49.154;9.280;2023-05-20T14:04:24;99326.81;;;26.43;68.63
13080;BME280;6606;49.154;9.280;2023-05-20T14:07:06;99320.09;;;26.39;67.00
13080;BME280;6606;49.154;9.280;2023-05-20T14:09:48;99321.19;;;26.15;66.88
13080;BME280;6606;49.154;9.280;2023-05-20T14:12:31;99318.72;;;25.90;67.91
13080;BME280;6606;49.154;9.280;2023-05-20T14:15:13;99317.63;;;25.99;65.88
13080;BME280;6606;49.154;9.280;2023-05-20T14:17:55;99321.69;;;25.80;68.19
13080;BME280;6606;49.154;9.280;2023-05-20T14:20:37;99327.22;;;25.64;69.77
13080;BME280;6606;49.154;9.280;2023-05-20T14:23:19;99320.13;;;25.63;71.67
13080;BME280;6606;49.154;9.280;2023-05-20T14:26:01;99319.75;;;25.66;71.52
13080;BME280;6606;49.154;9.280;2023-05-20T14:28:45;99311.81;;;25.64;72.23